createdAt,value
2023-03-30T00:04:12.383Z,12.97
2023-03-30T00:09:14.665Z,13.06
2023-03-30T00:14:18.023Z,13.12
2023-03-30T00:19:19.615Z,13.39
2023-03-30T00:24:21.141Z,13.35
2023-03-30T00:29:22.691Z,13.23
2023-03-30T00:34:24.272Z,13.61
2023-03-30T00:39:26.766Z,13.67
2023-03-30T00:45:06.049Z,13.73
2023-03-30T00:50:09.696Z,13.97
2023-03-30T00:55:12.622Z,13.86
2023-03-30T01:00:14.994Z,13.38
2023-03-30T01:05:16.903Z,13.18
2023-03-30T01:10:19.836Z,13.10
2023-03-30T01:15:23.791Z,13.33
2023-03-30T01:20:37.128Z,13.78
2023-03-30T01:26:23.722Z,13.75
2023-03-30T01:31:45.764Z,13.68
2023-03-30T01:37:15.955Z,13.55
2023-03-30T01:42:37.440Z,13.41
2023-03-30T01:48:01.856Z,13.36
2023-03-30T01:53:04.502Z,13.22
2023-03-30T01:58:13.064Z,13.47
2023-03-30T02:03:28.368Z,13.50
2023-03-30T02:08:33.048Z,13.61
2023-03-30T02:13:37.808Z,13.85
2023-03-30T02:18:40.422Z,13.94
2023-03-30T02:23:46.227Z,13.70
2023-03-30T02:28:48.391Z,13.56
2023-03-30T02:34:05.554Z,13.32
2023-03-30T02:44:26.690Z,13.07
2023-03-30T02:49:47.348Z,12.89
2023-03-30T02:54:48.881Z,13.06
2023-03-30T03:00:13.230Z,13.32
2023-03-30T03:05:16.731Z,13.13
2023-03-30T03:10:31.634Z,13.20
2023-03-30T03:15:33.386Z,13.21
2023-03-30T03:20:42.400Z,13.29
2023-03-30T03:25:45.713Z,13.57
2023-03-30T03:30:50.118Z,13.88
2023-03-30T03:36:00.067Z,14.24
2023-03-30T03:41:02.975Z,14.25
2023-03-30T03:46:06.142Z,14.12
2023-03-30T03:51:08.348Z,14.17
2023-03-30T03:56:11.831Z,14.16
2023-03-30T04:01:14.595Z,14.01
2023-03-30T04:06:16.441Z,13.85
2023-03-30T04:11:18.952Z,13.58
2023-03-30T04:16:31.813Z,13.57
2023-03-30T04:21:53.033Z,13.52
2023-03-30T04:27:16.990Z,13.55
2023-03-30T04:32:38.932Z,13.68
2023-03-30T04:37:52.877Z,13.65
2023-03-30T04:43:14.262Z,13.74
2023-03-30T04:48:20.031Z,13.67
2023-03-30T04:53:49.549Z,13.47
2023-03-30T04:59:11.394Z,13.14
2023-03-30T05:04:31.797Z,13.24
2023-03-30T05:09:52.607Z,13.06
2023-03-30T05:15:17.350Z,13.20
2023-03-30T05:20:25.792Z,13.54
2023-03-30T05:25:49.018Z,13.46
2023-03-30T05:31:09.522Z,13.57
2023-03-30T05:36:35.422Z,13.54
2023-03-30T05:41:42.511Z,13.18
2023-03-30T05:47:04.408Z,12.90
2023-03-30T05:52:28.784Z,12.92
2023-03-30T05:57:41.509Z,12.99
2023-03-30T06:03:00.521Z,12.44
2023-03-30T06:08:08.119Z,12.41
2023-03-30T06:13:10.676Z,12.48
2023-03-30T06:18:25.797Z,12.53
2023-03-30T06:23:35.845Z,12.72
2023-03-30T06:28:42.250Z,12.77
2023-03-30T06:33:44.467Z,12.93
2023-03-30T06:38:46.590Z,12.98
2023-03-30T06:43:50.849Z,12.98
2023-03-30T06:48:54.822Z,12.96
2023-03-30T06:54:20.464Z,12.76
2023-03-30T06:59:29.243Z,12.79
2023-03-30T07:04:56.863Z,12.80
2023-03-30T07:10:11.370Z,12.82
2023-03-30T07:15:14.999Z,12.87
2023-03-30T07:20:17.265Z,12.79
2023-03-30T07:25:42.165Z,12.91
2023-03-30T07:31:08.004Z,12.97
2023-03-30T07:36:11.900Z,13.13
2023-03-30T07:41:15.323Z,13.13
2023-03-30T07:46:20.720Z,13.26
2023-03-30T07:51:27.977Z,13.38
2023-03-30T07:56:42.919Z,13.23
2023-03-30T08:01:45.265Z,13.36
2023-03-30T08:07:11.615Z,13.39
2023-03-30T08:12:13.811Z,14.03
2023-03-30T08:17:15.387Z,14.50
2023-03-30T08:22:16.951Z,15.39
2023-03-30T08:27:18.604Z,14.59
2023-03-30T08:32:20.516Z,14.36
2023-03-30T08:37:22.135Z,13.61
2023-03-30T08:42:35.862Z,13.95
2023-03-30T08:47:42.882Z,13.83
2023-03-30T08:52:45.643Z,13.72
2023-03-30T08:58:27.284Z,13.98
2023-03-30T09:03:37.897Z,14.77
2023-03-30T09:08:40.783Z,14.55
2023-03-30T09:13:46.372Z,15.11
2023-03-30T09:18:54.231Z,14.89
2023-03-30T09:23:58.675Z,14.22
2023-03-30T09:29:24.786Z,14.71
2023-03-30T09:34:46.230Z,14.36
2023-03-30T09:39:49.342Z,15.28
2023-03-30T09:44:57.137Z,15.68
2023-03-30T09:50:12.046Z,14.36
2023-03-30T09:55:23.100Z,14.37
2023-03-30T10:00:29.378Z,14.14
2023-03-30T10:05:33.835Z,13.48
2023-03-30T10:10:41.116Z,13.39
2023-03-30T10:15:46.181Z,14.16
2023-03-30T10:21:03.846Z,14.35
2023-03-30T10:26:13.321Z,15.22
2023-03-30T10:31:16.669Z,16.23
2023-03-30T10:36:19.456Z,16.53
2023-03-30T10:41:23.577Z,15.83
2023-03-30T10:46:25.636Z,14.38
2023-03-30T10:51:53.844Z,14.53
2023-03-30T10:57:00.232Z,14.32
2023-03-30T11:02:29.901Z,14.40
2023-03-30T11:07:43.849Z,14.77
2023-03-30T11:12:56.435Z,14.97
2023-03-30T11:18:18.623Z,14.79
2023-03-30T11:23:46.118Z,14.89
2023-03-30T11:29:10.034Z,14.58
2023-03-30T11:34:49.413Z,14.67
2023-03-30T11:40:13.024Z,14.94
2023-03-30T11:45:39.236Z,15.50
2023-03-30T11:51:19.233Z,15.54
2023-03-30T11:56:51.167Z,15.48
2023-03-30T12:02:35.531Z,14.60
2023-03-30T12:07:54.755Z,13.82
2023-03-30T12:12:57.034Z,15.69
2023-03-30T12:18:42.252Z,15.81
2023-03-30T12:23:57.217Z,14.98
2023-03-30T12:29:48.175Z,15.90
2023-03-30T12:34:29.038Z,15.16
2023-03-30T12:39:34.108Z,14.47
2023-03-30T12:44:42.833Z,15.27
2023-03-30T12:49:44.477Z,14.73
2023-03-30T12:55:12.226Z,14.93
2023-03-30T13:00:45.935Z,14.58
2023-03-30T13:05:54.177Z,14.58
2023-03-30T13:11:19.106Z,14.93
2023-03-30T13:16:52.462Z,15.90
2023-03-30T13:22:12.404Z,15.78
2023-03-30T13:27:13.963Z,15.46
2023-03-30T13:32:21.237Z,15.51
2023-03-30T13:37:57.041Z,16.08
2023-03-30T13:43:22.295Z,16.06
2023-03-30T13:48:42.058Z,15.69
2023-03-30T13:53:54.650Z,15.20
2023-03-30T13:59:13.831Z,15.03
2023-03-30T14:04:16.421Z,13.81
2023-03-30T14:09:24.034Z,14.17
2023-03-30T14:14:29.112Z,15.30
2023-03-30T14:19:36.823Z,15.13
2023-03-30T14:24:38.420Z,15.10
2023-03-30T14:29:49.645Z,14.97
2023-03-30T14:34:53.740Z,14.86
2023-03-30T14:39:57.461Z,14.72
2023-03-30T14:45:00.785Z,15.61
2023-03-30T14:50:07.771Z,15.49
2023-03-30T14:55:18.836Z,16.54
2023-03-30T15:00:22.848Z,16.46
2023-03-30T15:05:29.660Z,15.41
2023-03-30T15:10:43.637Z,16.80
2023-03-30T15:15:45.255Z,15.54
2023-03-30T15:20:47.116Z,15.27
2023-03-30T15:25:49.218Z,16.47
2023-03-30T15:30:53.045Z,15.56
2023-03-30T15:35:54.902Z,15.76
2023-03-30T15:40:56.761Z,16.01
2023-03-30T15:46:07.640Z,16.81
2023-03-30T15:51:20.237Z,15.92
2023-03-30T15:56:40.674Z,15.30
2023-03-30T16:01:57.173Z,15.13
2023-03-30T16:06:58.975Z,15.15
2023-03-30T16:12:03.389Z,15.70
2023-03-30T16:17:05.040Z,15.22
2023-03-30T16:22:07.921Z,15.12
2023-03-30T16:27:11.401Z,15.07
2023-03-30T16:32:12.928Z,14.92
2023-03-30T16:37:14.559Z,14.53
2023-03-30T16:42:16.098Z,14.55
2023-03-30T16:47:20.285Z,15.23
2023-03-30T16:52:21.946Z,14.93
2023-03-30T16:57:23.531Z,14.78
2023-03-30T17:02:25.503Z,15.02
2023-03-30T17:07:27.342Z,14.58
2023-03-30T17:12:28.916Z,14.44
2023-03-30T17:17:30.551Z,14.39
2023-03-30T17:22:32.397Z,14.20
2023-03-30T17:27:34.263Z,14.04
2023-03-30T17:32:36.191Z,13.76
2023-03-30T17:37:38.618Z,13.80
2023-03-30T17:42:40.437Z,13.60
2023-03-30T17:47:42.885Z,13.49
2023-03-30T17:52:44.580Z,13.68
2023-03-30T17:57:51.614Z,13.44
2023-03-30T18:02:54.853Z,13.42
2023-03-30T18:07:56.590Z,13.50
2023-03-30T18:12:58.472Z,13.36
2023-03-30T18:18:01.264Z,13.10
2023-03-30T18:23:03.746Z,13.12
2023-03-30T18:28:15.398Z,13.02
2023-03-30T18:33:17.066Z,13.35
2023-03-30T18:38:21.484Z,13.29
2023-03-30T18:43:23.770Z,13.31
2023-03-30T18:48:25.718Z,13.31
2023-03-30T18:53:28.967Z,13.05
2023-03-30T18:58:33.758Z,12.91
2023-03-30T19:03:35.593Z,12.46
2023-03-30T19:08:37.387Z,12.37
2023-03-30T19:13:39.132Z,12.15
2023-03-30T19:18:40.826Z,12.26
2023-03-30T19:23:42.673Z,12.32
2023-03-30T19:28:44.646Z,12.45
2023-03-30T19:33:46.397Z,12.34
2023-03-30T19:38:49.456Z,12.19
2023-03-30T19:43:51.040Z,12.13
2023-03-30T19:48:55.596Z,12.23
2023-03-30T19:53:57.814Z,12.30
2023-03-30T19:58:59.383Z,12.30
2023-03-30T20:04:01.170Z,12.28
2023-03-30T20:09:05.364Z,12.28
2023-03-30T20:14:07.466Z,12.30
2023-03-30T20:19:22.377Z,12.43
2023-03-30T20:24:30.431Z,12.55
2023-03-30T20:29:31.997Z,12.47
2023-03-30T20:34:33.742Z,12.48
2023-03-30T20:39:37.240Z,12.48
2023-03-30T20:44:41.160Z,12.54
2023-03-30T20:49:43.733Z,12.32
2023-03-30T20:54:45.399Z,12.02
2023-03-30T20:59:50.057Z,11.81
2023-03-30T21:04:56.680Z,11.75
2023-03-30T21:09:58.426Z,11.62
2023-03-30T21:15:01.658Z,11.54
2023-03-30T21:20:05.349Z,11.49
2023-03-30T21:25:07.275Z,11.60
2023-03-30T21:30:12.145Z,11.49
2023-03-30T21:35:16.322Z,11.39
2023-03-30T21:40:18.020Z,11.25
2023-03-30T21:45:20.594Z,11.18
2023-03-30T21:50:22.441Z,11.26
2023-03-30T21:55:26.594Z,11.19
2023-03-30T22:00:28.330Z,11.22
2023-03-30T22:05:29.990Z,11.12
2023-03-30T22:10:34.515Z,11.14
2023-03-30T22:15:36.486Z,11.19
2023-03-30T22:27:16.374Z,10.99
2023-03-30T22:32:18.856Z,11.00
2023-03-30T22:37:20.398Z,10.79
2023-03-30T22:42:22.114Z,10.81
2023-03-30T22:47:23.746Z,10.79
2023-03-30T22:52:25.487Z,10.85
2023-03-30T22:57:27.912Z,10.73
2023-03-30T23:02:31.255Z,10.69
2023-03-30T23:07:36.920Z,10.57
2023-03-30T23:12:38.507Z,10.58
2023-03-30T23:17:40.673Z,10.69
2023-03-30T23:22:42.512Z,10.58
2023-03-30T23:27:44.826Z,10.52
2023-03-30T23:32:46.519Z,10.59
2023-03-30T23:37:49.985Z,10.23
2023-03-30T23:42:57.761Z,10.41
2023-03-30T23:47:59.622Z,10.36
2023-03-30T23:53:01.423Z,10.45
2023-03-30T23:58:03.371Z,10.46
